Pagrindinis puslapis
METAR-TAF:

METAR-TAF

Oro uostai :

Kosraė, Mikronezija

platuma: 05-21N, ilguma: 162-57E, Aukštis: 3 m

Dabartinis oras

Ataskaita buvo paskelbta 13 valandos ir 24 minutes, ne 23:50 UTC
Vėjas 14 kt iš Vakarų
Temperatūra 31°C
Drėgmė 71%
Slėgis 1011 hPa
Matomumas: 16.1 km
Su prošvaistėmis ne aukštis 1900 ft, aukštai iškilę kamuoliniai debesys.
Su prošvaistėmis ne aukštis 13000 ft
Su prošvaistėmis ne aukštis 30000 ft

METAR: PTSA 152350Z 27014KT 10SM BKN019TCU BKN130 BKN300 31/25 A2985 RMK TCU NW-NE LAST

Laikas: 00:14 (13:14 UTC)

Prognozė

Ataskaita buvo paskelbta 13 valandos ir 54 minutes, ne 23:20 UTC
Prognozė galioja nuo 16 metu 00 UTC su 16 metu 24 UTC
Vėjas 13 kt iš Vakarų
Matomumas: 10 km
Išsisklaidę debesys ne aukštis 2000 ft
Su prošvaistėmis ne aukštis 13000 ft
Su prošvaistėmis ne aukštis 30000 ft
Liūtis kaimynystėje

TAF: PTSA 152320Z 1600/1624 26013KT P6SM VCSH SCT020 BKN130 BKN300

Orai ataskaitas ir orų prognozės (METAR, TAF).

turimą stotys yra geltonos ir raudonos taškus žemėlapyje.

Perkelti pele per norėdami pamatyti stoties vardą.

Tada spustelėkite, norėdami matyti oro stebėjimo ir prognozės.

Norėdami pakeisti žemėlapį: spustelėkite ant žalios mygtukų su juodo kryžiaus žemyn,; žalią mygtuką su brūkšneliu, jei norite nutolinti; arba žalių rodyklių gretimoms žemėlapius.


METAR-TAF: